sensor_id;sensor_type;location;lat;lon;timestamp;P1;durP1;ratioP1;P2;durP2;ratioP2
8777;SDS011;4425;50.872;4.712;2022-07-24T00:01:51;23.65;;;21.17;;
8777;SDS011;4425;50.872;4.712;2022-07-24T00:04:18;22.65;;;20.30;;
8777;SDS011;4425;50.872;4.712;2022-07-24T00:06:45;22.25;;;20.05;;
8777;SDS011;4425;50.872;4.712;2022-07-24T00:09:13;22.55;;;20.20;;
8777;SDS011;4425;50.872;4.712;2022-07-24T00:11:41;22.25;;;20.13;;
8777;SDS011;4425;50.872;4.712;2022-07-24T00:14:09;23.73;;;21.23;;
8777;SDS011;4425;50.872;4.712;2022-07-24T00:19:07;27.55;;;24.63;;
8777;SDS011;4425;50.872;4.712;2022-07-24T00:21:34;27.65;;;24.75;;
8777;SDS011;4425;50.872;4.712;2022-07-24T00:24:02;28.08;;;25.05;;
8777;SDS011;4425;50.872;4.712;2022-07-24T00:26:31;27.40;;;24.45;;
8777;SDS011;4425;50.872;4.712;2022-07-24T00:28:59;26.40;;;23.65;;
8777;SDS011;4425;50.872;4.712;2022-07-24T00:31:27;27.80;;;24.92;;
8777;SDS011;4425;50.872;4.712;2022-07-24T00:33:56;26.13;;;23.35;;
8777;SDS011;4425;50.872;4.712;2022-07-24T00:42:34;27.77;;;22.25;;
8777;SDS011;4425;50.872;4.712;2022-07-24T00:45:03;25.83;;;23.23;;
8777;SDS011;4425;50.872;4.712;2022-07-24T00:47:34;23.65;;;21.35;;
8777;SDS011;4425;50.872;4.712;2022-07-24T00:50:01;22.58;;;20.35;;
8777;SDS011;4425;50.872;4.712;2022-07-24T00:52:30;22.42;;;20.02;;
8777;SDS011;4425;50.872;4.712;2022-07-24T00:55:00;22.60;;;20.40;;
8777;SDS011;4425;50.872;4.712;2022-07-24T00:57:28;23.00;;;20.60;;
8777;SDS011;4425;50.872;4.712;2022-07-24T00:59:55;23.13;;;20.85;;
8777;SDS011;4425;50.872;4.712;2022-07-24T01:02:27;22.35;;;19.90;;
8777;SDS011;4425;50.872;4.712;2022-07-24T01:04:54;22.17;;;20.10;;
8777;SDS011;4425;50.872;4.712;2022-07-24T01:07:21;22.00;;;19.80;;
8777;SDS011;4425;50.872;4.712;2022-07-24T01:09:48;21.42;;;19.20;;
8777;SDS011;4425;50.872;4.712;2022-07-24T01:12:16;21.65;;;19.55;;
8777;SDS011;4425;50.872;4.712;2022-07-24T01:14:46;23.20;;;20.70;;
8777;SDS011;4425;50.872;4.712;2022-07-24T01:17:13;23.02;;;19.80;;
8777;SDS011;4425;50.872;4.712;2022-07-24T01:19:42;27.50;;;21.17;;
8777;SDS011;4425;50.872;4.712;2022-07-24T01:22:10;23.58;;;21.25;;
8777;SDS011;4425;50.872;4.712;2022-07-24T01:24:37;23.92;;;21.52;;
8777;SDS011;4425;50.872;4.712;2022-07-24T01:27:04;23.50;;;21.25;;
8777;SDS011;4425;50.872;4.712;2022-07-24T01:29:33;23.95;;;21.50;;
8777;SDS011;4425;50.872;4.712;2022-07-24T01:32:01;23.88;;;21.23;;
8777;SDS011;4425;50.872;4.712;2022-07-24T01:34:28;25.38;;;21.88;;
8777;SDS011;4425;50.872;4.712;2022-07-24T01:36:55;24.35;;;21.98;;
8777;SDS011;4425;50.872;4.712;2022-07-24T01:39:24;24.85;;;21.15;;
8777;SDS011;4425;50.872;4.712;2022-07-24T01:41:52;24.02;;;21.35;;
8777;SDS011;4425;50.872;4.712;2022-07-24T01:44:19;24.80;;;21.98;;
8777;SDS011;4425;50.872;4.712;2022-07-24T01:46:47;24.33;;;21.60;;
8777;SDS011;4425;50.872;4.712;2022-07-24T01:49:14;26.70;;;22.67;;
8777;SDS011;4425;50.872;4.712;2022-07-24T01:51:42;23.73;;;21.30;;
8777;SDS011;4425;50.872;4.712;2022-07-24T01:54:09;27.15;;;21.25;;
8777;SDS011;4425;50.872;4.712;2022-07-24T01:56:37;24.83;;;20.88;;
8777;SDS011;4425;50.872;4.712;2022-07-24T01:59:04;21.98;;;19.77;;
8777;SDS011;4425;50.872;4.712;2022-07-24T02:01:32;22.90;;;20.50;;
8777;SDS011;4425;50.872;4.712;2022-07-24T02:03:59;21.58;;;19.50;;
8777;SDS011;4425;50.872;4.712;2022-07-24T02:06:27;20.60;;;18.48;;
8777;SDS011;4425;50.872;4.712;2022-07-24T02:08:54;28.35;;;20.15;;
8777;SDS011;4425;50.872;4.712;2022-07-24T02:11:22;21.58;;;19.52;;
8777;SDS011;4425;50.872;4.712;2022-07-24T02:13:51;24.77;;;19.83;;
8777;SDS011;4425;50.872;4.712;2022-07-24T02:16:20;21.92;;;19.70;;
8777;SDS011;4425;50.872;4.712;2022-07-24T02:18:47;21.88;;;19.60;;
8777;SDS011;4425;50.872;4.712;2022-07-24T02:21:14;20.83;;;18.83;;
8777;SDS011;4425;50.872;4.712;2022-07-24T02:23:41;20.23;;;18.23;;
8777;SDS011;4425;50.872;4.712;2022-07-24T02:26:10;22.98;;;19.95;;
8777;SDS011;4425;50.872;4.712;2022-07-24T02:28:37;20.17;;;18.10;;
8777;SDS011;4425;50.872;4.712;2022-07-24T02:31:05;21.40;;;19.40;;
8777;SDS011;4425;50.872;4.712;2022-07-24T02:33:33;22.85;;;18.98;;
8777;SDS011;4425;50.872;4.712;2022-07-24T02:36:00;19.58;;;17.75;;
8777;SDS011;4425;50.872;4.712;2022-07-24T02:38:27;20.13;;;18.13;;
8777;SDS011;4425;50.872;4.712;2022-07-24T02:40:55;24.27;;;19.42;;
8777;SDS011;4425;50.872;4.712;2022-07-24T02:43:22;21.55;;;19.38;;
8777;SDS011;4425;50.872;4.712;2022-07-24T02:45:49;22.17;;;19.58;;
8777;SDS011;4425;50.872;4.712;2022-07-24T02:48:18;22.15;;;19.85;;
8777;SDS011;4425;50.872;4.712;2022-07-24T02:50:45;22.90;;;20.50;;
8777;SDS011;4425;50.872;4.712;2022-07-24T02:53:13;22.40;;;20.13;;
8777;SDS011;4425;50.872;4.712;2022-07-24T02:55:40;23.63;;;21.23;;
8777;SDS011;4425;50.872;4.712;2022-07-24T02:58:07;25.42;;;22.65;;
8777;SDS011;4425;50.872;4.712;2022-07-24T03:00:35;25.95;;;23.15;;
8777;SDS011;4425;50.872;4.712;2022-07-24T03:03:03;28.92;;;23.80;;
8777;SDS011;4425;50.872;4.712;2022-07-24T03:05:32;26.55;;;23.73;;
8777;SDS011;4425;50.872;4.712;2022-07-24T03:07:59;25.40;;;22.80;;
8777;SDS011;4425;50.872;4.712;2022-07-24T03:10:26;27.55;;;24.85;;
8777;SDS011;4425;50.872;4.712;2022-07-24T03:15:36;29.88;;;26.65;;
8777;SDS011;4425;50.872;4.712;2022-07-24T03:18:04;29.77;;;24.80;;
8777;SDS011;4425;50.872;4.712;2022-07-24T03:20:32;28.15;;;25.30;;
8777;SDS011;4425;50.872;4.712;2022-07-24T03:22:59;39.35;;;27.75;;
8777;SDS011;4425;50.872;4.712;2022-07-24T03:25:27;32.88;;;28.38;;
8777;SDS011;4425;50.872;4.712;2022-07-24T03:27:53;30.50;;;27.25;;
8777;SDS011;4425;50.872;4.712;2022-07-24T03:30:21;30.10;;;27.30;;
8777;SDS011;4425;50.872;4.712;2022-07-24T03:32:52;30.67;;;27.47;;
8777;SDS011;4425;50.872;4.712;2022-07-24T03:38:32;32.60;;;29.40;;
8777;SDS011;4425;50.872;4.712;2022-07-24T03:40:59;32.93;;;29.43;;
8777;SDS011;4425;50.872;4.712;2022-07-24T03:43:27;33.57;;;30.07;;
8777;SDS011;4425;50.872;4.712;2022-07-24T03:45:54;33.33;;;29.87;;
8777;SDS011;4425;50.872;4.712;2022-07-24T03:48:21;32.73;;;29.40;;
8777;SDS011;4425;50.872;4.712;2022-07-24T03:50:48;32.33;;;28.83;;
8777;SDS011;4425;50.872;4.712;2022-07-24T03:53:15;32.90;;;29.47;;
8777;SDS011;4425;50.872;4.712;2022-07-24T03:55:45;31.83;;;28.57;;
8777;SDS011;4425;50.872;4.712;2022-07-24T03:58:12;33.37;;;29.43;;
8777;SDS011;4425;50.872;4.712;2022-07-24T04:00:39;32.20;;;29.03;;
8777;SDS011;4425;50.872;4.712;2022-07-24T04:03:06;34.40;;;29.40;;
8777;SDS011;4425;50.872;4.712;2022-07-24T04:05:33;34.73;;;28.33;;
8777;SDS011;4425;50.872;4.712;2022-07-24T04:08:00;31.77;;;28.20;;
8777;SDS011;4425;50.872;4.712;2022-07-24T04:10:27;31.70;;;28.23;;
8777;SDS011;4425;50.872;4.712;2022-07-24T04:12:56;28.60;;;25.80;;
8777;SDS011;4425;50.872;4.712;2022-07-24T04:15:23;29.83;;;26.63;;
8777;SDS011;4425;50.872;4.712;2022-07-24T04:17:50;29.63;;;26.47;;
8777;SDS011;4425;50.872;4.712;2022-07-24T04:20:20;30.48;;;27.33;;
8777;SDS011;4425;50.872;4.712;2022-07-24T04:22:47;30.77;;;26.90;;
8777;SDS011;4425;50.872;4.712;2022-07-24T04:25:14;30.90;;;27.80;;
8777;SDS011;4425;50.872;4.712;2022-07-24T04:27:41;31.07;;;27.93;;
8777;SDS011;4425;50.872;4.712;2022-07-24T04:30:11;32.80;;;29.30;;
8777;SDS011;4425;50.872;4.712;2022-07-24T04:32:39;31.77;;;28.13;;
8777;SDS011;4425;50.872;4.712;2022-07-24T04:35:06;30.00;;;26.77;;
8777;SDS011;4425;50.872;4.712;2022-07-24T04:37:34;32.83;;;27.23;;
8777;SDS011;4425;50.872;4.712;2022-07-24T04:40:02;32.67;;;29.57;;
8777;SDS011;4425;50.872;4.712;2022-07-24T04:42:29;31.77;;;28.67;;
8777;SDS011;4425;50.872;4.712;2022-07-24T04:44:56;31.52;;;27.88;;
8777;SDS011;4425;50.872;4.712;2022-07-24T04:47:25;30.60;;;27.30;;
8777;SDS011;4425;50.872;4.712;2022-07-24T04:49:52;33.23;;;29.07;;
8777;SDS011;4425;50.872;4.712;2022-07-24T04:52:19;29.47;;;26.50;;
8777;SDS011;4425;50.872;4.712;2022-07-24T04:54:46;31.20;;;27.83;;
8777;SDS011;4425;50.872;4.712;2022-07-24T04:57:14;29.70;;;26.60;;
8777;SDS011;4425;50.872;4.712;2022-07-24T04:59:41;31.37;;;27.97;;
8777;SDS011;4425;50.872;4.712;2022-07-24T05:02:08;32.73;;;27.47;;
8777;SDS011;4425;50.872;4.712;2022-07-24T05:04:37;30.57;;;27.23;;
8777;SDS011;4425;50.872;4.712;2022-07-24T05:07:04;30.13;;;27.07;;
8777;SDS011;4425;50.872;4.712;2022-07-24T05:09:31;31.97;;;26.87;;
8777;SDS011;4425;50.872;4.712;2022-07-24T05:11:59;29.67;;;26.73;;
8777;SDS011;4425;50.872;4.712;2022-07-24T05:14:26;29.87;;;26.97;;
8777;SDS011;4425;50.872;4.712;2022-07-24T05:16:53;29.73;;;26.53;;
8777;SDS011;4425;50.872;4.712;2022-07-24T05:19:20;29.50;;;26.60;;
8777;SDS011;4425;50.872;4.712;2022-07-24T05:21:49;32.67;;;26.03;;
8777;SDS011;4425;50.872;4.712;2022-07-24T05:24:15;29.13;;;26.03;;
8777;SDS011;4425;50.872;4.712;2022-07-24T05:26:43;29.05;;;26.13;;
8777;SDS011;4425;50.872;4.712;2022-07-24T05:29:10;29.03;;;25.93;;
8777;SDS011;4425;50.872;4.712;2022-07-24T05:31:37;28.50;;;25.47;;
8777;SDS011;4425;50.872;4.712;2022-07-24T05:34:04;27.67;;;24.17;;
8777;SDS011;4425;50.872;4.712;2022-07-24T05:36:31;26.77;;;24.08;;
8777;SDS011;4425;50.872;4.712;2022-07-24T05:39:00;27.30;;;23.43;;
8777;SDS011;4425;50.872;4.712;2022-07-24T05:41:27;25.58;;;22.63;;
8777;SDS011;4425;50.872;4.712;2022-07-24T05:43:54;25.38;;;20.92;;
8777;SDS011;4425;50.872;4.712;2022-07-24T05:46:21;23.02;;;20.35;;
8777;SDS011;4425;50.872;4.712;2022-07-24T05:48:49;22.90;;;20.50;;
8777;SDS011;4425;50.872;4.712;2022-07-24T05:51:16;21.75;;;19.58;;
8777;SDS011;4425;50.872;4.712;2022-07-24T05:53:44;20.90;;;18.88;;
8777;SDS011;4425;50.872;4.712;2022-07-24T05:56:13;24.33;;;18.92;;
8777;SDS011;4425;50.872;4.712;2022-07-24T05:58:40;19.20;;;17.25;;
8777;SDS011;4425;50.872;4.712;2022-07-24T06:01:07;20.05;;;17.48;;
8777;SDS011;4425;50.872;4.712;2022-07-24T06:03:34;19.60;;;17.70;;
8777;SDS011;4425;50.872;4.712;2022-07-24T06:06:02;19.50;;;17.48;;
8777;SDS011;4425;50.872;4.712;2022-07-24T06:08:30;20.15;;;16.77;;
8777;SDS011;4425;50.872;4.712;2022-07-24T06:14:39;15.88;;;14.20;;
8777;SDS011;4425;50.872;4.712;2022-07-24T06:17:07;16.42;;;14.82;;
8777;SDS011;4425;50.872;4.712;2022-07-24T06:19:34;15.38;;;13.45;;
8777;SDS011;4425;50.872;4.712;2022-07-24T06:22:01;14.25;;;12.75;;
8777;SDS011;4425;50.872;4.712;2022-07-24T06:24:28;14.60;;;12.95;;
8777;SDS011;4425;50.872;4.712;2022-07-24T06:26:55;14.88;;;12.90;;
8777;SDS011;4425;50.872;4.712;2022-07-24T06:29:25;14.35;;;12.38;;
8777;SDS011;4425;50.872;4.712;2022-07-24T06:35:35;10.65;;;9.55;;
8777;SDS011;4425;50.872;4.712;2022-07-24T06:38:02;10.75;;;9.25;;
8777;SDS011;4425;50.872;4.712;2022-07-24T06:40:29;12.52;;;9.70;;
8777;SDS011;4425;50.872;4.712;2022-07-24T06:42:56;13.05;;;11.38;;
8777;SDS011;4425;50.872;4.712;2022-07-24T06:45:23;11.93;;;10.50;;
8777;SDS011;4425;50.872;4.712;2022-07-24T06:47:50;11.30;;;10.10;;
8777;SDS011;4425;50.872;4.712;2022-07-24T06:50:18;12.80;;;9.98;;
8777;SDS011;4425;50.872;4.712;2022-07-24T06:52:46;13.13;;;10.35;;
8777;SDS011;4425;50.872;4.712;2022-07-24T06:55:13;10.88;;;9.75;;
8777;SDS011;4425;50.872;4.712;2022-07-24T06:57:42;12.63;;;9.85;;
8777;SDS011;4425;50.872;4.712;2022-07-24T07:00:09;11.73;;;9.52;;
8777;SDS011;4425;50.872;4.712;2022-07-24T07:02:38;14.90;;;9.55;;
8777;SDS011;4425;50.872;4.712;2022-07-24T07:05:05;10.65;;;9.25;;
8777;SDS011;4425;50.872;4.712;2022-07-24T07:07:34;14.32;;;10.23;;
8777;SDS011;4425;50.872;4.712;2022-07-24T07:10:04;10.32;;;9.15;;
8777;SDS011;4425;50.872;4.712;2022-07-24T07:12:32;10.93;;;9.70;;
8777;SDS011;4425;50.872;4.712;2022-07-24T07:14:59;10.55;;;8.57;;
8777;SDS011;4425;50.872;4.712;2022-07-24T07:17:26;8.30;;;7.53;;
8777;SDS011;4425;50.872;4.712;2022-07-24T07:19:54;8.50;;;7.57;;
8777;SDS011;4425;50.872;4.712;2022-07-24T07:22:21;8.90;;;7.82;;
8777;SDS011;4425;50.872;4.712;2022-07-24T07:24:48;8.00;;;7.20;;
8777;SDS011;4425;50.872;4.712;2022-07-24T07:27:17;8.88;;;7.30;;
8777;SDS011;4425;50.872;4.712;2022-07-24T07:29:44;9.63;;;7.18;;
8777;SDS011;4425;50.872;4.712;2022-07-24T07:32:11;7.00;;;6.43;;
8777;SDS011;4425;50.872;4.712;2022-07-24T07:34:38;7.63;;;6.90;;
8777;SDS011;4425;50.872;4.712;2022-07-24T07:37:05;8.30;;;7.40;;
8777;SDS011;4425;50.872;4.712;2022-07-24T07:39:33;9.45;;;6.10;;
8777;SDS011;4425;50.872;4.712;2022-07-24T07:42:00;7.90;;;6.25;;
8777;SDS011;4425;50.872;4.712;2022-07-24T07:44:28;6.82;;;6.13;;
8777;SDS011;4425;50.872;4.712;2022-07-24T07:46:58;6.13;;;5.47;;
8777;SDS011;4425;50.872;4.712;2022-07-24T07:49:25;6.47;;;5.40;;
8777;SDS011;4425;50.872;4.712;2022-07-24T07:51:53;6.03;;;5.53;;
8777;SDS011;4425;50.872;4.712;2022-07-24T07:54:20;6.95;;;6.28;;
8777;SDS011;4425;50.872;4.712;2022-07-24T07:59:18;6.93;;;5.65;;
8777;SDS011;4425;50.872;4.712;2022-07-24T08:01:47;7.80;;;5.68;;
8777;SDS011;4425;50.872;4.712;2022-07-24T08:04:14;9.45;;;6.13;;
8777;SDS011;4425;50.872;4.712;2022-07-24T08:06:41;6.55;;;5.95;;
8777;SDS011;4425;50.872;4.712;2022-07-24T08:09:09;5.30;;;4.95;;
8777;SDS011;4425;50.872;4.712;2022-07-24T08:11:36;5.50;;;4.70;;
8777;SDS011;4425;50.872;4.712;2022-07-24T08:14:03;4.45;;;4.10;;
8777;SDS011;4425;50.872;4.712;2022-07-24T08:16:31;5.05;;;4.32;;
8777;SDS011;4425;50.872;4.712;2022-07-24T08:19:01;4.03;;;3.75;;
8777;SDS011;4425;50.872;4.712;2022-07-24T08:21:29;3.97;;;3.78;;
8777;SDS011;4425;50.872;4.712;2022-07-24T08:23:58;4.70;;;4.40;;
8777;SDS011;4425;50.872;4.712;2022-07-24T08:26:25;4.65;;;4.03;;
8777;SDS011;4425;50.872;4.712;2022-07-24T08:28:56;4.10;;;3.80;;
8777;SDS011;4425;50.872;4.712;2022-07-24T08:31:23;4.05;;;3.75;;
8777;SDS011;4425;50.872;4.712;2022-07-24T08:33:50;4.45;;;4.13;;
8777;SDS011;4425;50.872;4.712;2022-07-24T08:36:20;4.72;;;4.25;;
8777;SDS011;4425;50.872;4.712;2022-07-24T08:38:47;5.47;;;3.70;;
8777;SDS011;4425;50.872;4.712;2022-07-24T08:41:17;3.90;;;3.60;;
8777;SDS011;4425;50.872;4.712;2022-07-24T08:43:44;3.70;;;3.38;;
8777;SDS011;4425;50.872;4.712;2022-07-24T08:46:12;4.03;;;3.72;;
8777;SDS011;4425;50.872;4.712;2022-07-24T08:48:55;3.33;;;3.13;;
8777;SDS011;4425;50.872;4.712;2022-07-24T08:51:34;3.30;;;3.10;;
8777;SDS011;4425;50.872;4.712;2022-07-24T08:54:06;3.70;;;3.40;;
8777;SDS011;4425;50.872;4.712;2022-07-24T08:56:33;3.53;;;3.25;;
8777;SDS011;4425;50.872;4.712;2022-07-24T08:59:02;2.92;;;2.78;;
8777;SDS011;4425;50.872;4.712;2022-07-24T09:01:30;3.25;;;3.15;;
8777;SDS011;4425;50.872;4.712;2022-07-24T09:03:58;2.72;;;2.60;;
8777;SDS011;4425;50.872;4.712;2022-07-24T09:06:35;3.60;;;3.25;;
8777;SDS011;4425;50.872;4.712;2022-07-24T09:09:12;3.20;;;3.00;;
8777;SDS011;4425;50.872;4.712;2022-07-24T09:11:39;4.47;;;2.92;;
8777;SDS011;4425;50.872;4.712;2022-07-24T09:14:10;3.17;;;2.92;;
8777;SDS011;4425;50.872;4.712;2022-07-24T09:17:04;3.40;;;2.92;;
8777;SDS011;4425;50.872;4.712;2022-07-24T09:19:35;3.05;;;2.90;;
8777;SDS011;4425;50.872;4.712;2022-07-24T09:22:19;3.28;;;3.00;;
8777;SDS011;4425;50.872;4.712;2022-07-24T09:25:02;3.45;;;3.00;;
8777;SDS011;4425;50.872;4.712;2022-07-24T09:27:40;3.28;;;3.08;;
8777;SDS011;4425;50.872;4.712;2022-07-24T09:33:53;2.45;;;2.35;;
8777;SDS011;4425;50.872;4.712;2022-07-24T09:36:21;3.13;;;2.80;;
8777;SDS011;4425;50.872;4.712;2022-07-24T09:38:52;2.70;;;2.55;;
8777;SDS011;4425;50.872;4.712;2022-07-24T09:41:22;2.28;;;2.17;;
8777;SDS011;4425;50.872;4.712;2022-07-24T09:43:57;3.38;;;2.53;;
8777;SDS011;4425;50.872;4.712;2022-07-24T09:46:26;2.65;;;2.45;;
8777;SDS011;4425;50.872;4.712;2022-07-24T09:48:54;4.85;;;3.35;;
8777;SDS011;4425;50.872;4.712;2022-07-24T09:51:23;2.63;;;2.42;;
8777;SDS011;4425;50.872;4.712;2022-07-24T09:53:54;2.30;;;2.20;;
8777;SDS011;4425;50.872;4.712;2022-07-24T09:56:22;2.47;;;2.40;;
8777;SDS011;4425;50.872;4.712;2022-07-24T09:58:56;2.35;;;2.25;;
8777;SDS011;4425;50.872;4.712;2022-07-24T10:01:26;2.40;;;2.30;;
8777;SDS011;4425;50.872;4.712;2022-07-24T10:03:55;2.55;;;2.40;;
8777;SDS011;4425;50.872;4.712;2022-07-24T10:06:25;2.40;;;2.20;;
8777;SDS011;4425;50.872;4.712;2022-07-24T10:08:58;2.13;;;2.03;;
8777;SDS011;4425;50.872;4.712;2022-07-24T10:11:27;3.10;;;2.35;;
8777;SDS011;4425;50.872;4.712;2022-07-24T10:13:56;2.97;;;2.15;;
8777;SDS011;4425;50.872;4.712;2022-07-24T10:16:28;2.65;;;2.42;;
8777;SDS011;4425;50.872;4.712;2022-07-24T10:18:57;4.05;;;2.80;;
8777;SDS011;4425;50.872;4.712;2022-07-24T10:21:26;2.35;;;2.25;;
8777;SDS011;4425;50.872;4.712;2022-07-24T10:27:12;2.50;;;2.30;;
8777;SDS011;4425;50.872;4.712;2022-07-24T10:29:48;2.42;;;2.22;;
8777;SDS011;4425;50.872;4.712;2022-07-24T10:32:20;2.40;;;2.30;;
8777;SDS011;4425;50.872;4.712;2022-07-24T10:34:49;4.55;;;2.17;;
8777;SDS011;4425;50.872;4.712;2022-07-24T10:37:32;2.30;;;2.20;;
8777;SDS011;4425;50.872;4.712;2022-07-24T10:40:11;2.13;;;2.03;;
8777;SDS011;4425;50.872;4.712;2022-07-24T10:45:41;2.15;;;2.05;;
8777;SDS011;4425;50.872;4.712;2022-07-24T10:51:02;5.00;;;2.08;;
8777;SDS011;4425;50.872;4.712;2022-07-24T10:53:43;1.88;;;1.88;;
8777;SDS011;4425;50.872;4.712;2022-07-24T10:56:18;2.53;;;2.35;;
8777;SDS011;4425;50.872;4.712;2022-07-24T10:58:53;2.20;;;2.10;;
8777;SDS011;4425;50.872;4.712;2022-07-24T11:01:32;2.30;;;2.30;;
8777;SDS011;4425;50.872;4.712;2022-07-24T11:04:26;3.13;;;2.08;;
8777;SDS011;4425;50.872;4.712;2022-07-24T11:07:08;2.95;;;2.75;;
8777;SDS011;4425;50.872;4.712;2022-07-24T11:09:53;1.90;;;1.80;;
8777;SDS011;4425;50.872;4.712;2022-07-24T11:12:27;2.00;;;1.90;;
8777;SDS011;4425;50.872;4.712;2022-07-24T11:14:57;2.10;;;2.00;;
8777;SDS011;4425;50.872;4.712;2022-07-24T11:17:45;1.98;;;1.83;;
8777;SDS011;4425;50.872;4.712;2022-07-24T11:20:13;3.60;;;3.28;;
8777;SDS011;4425;50.872;4.712;2022-07-24T11:22:44;2.92;;;1.83;;
8777;SDS011;4425;50.872;4.712;2022-07-24T11:25:14;1.92;;;1.83;;
8777;SDS011;4425;50.872;4.712;2022-07-24T11:27:49;2.53;;;2.13;;
8777;SDS011;4425;50.872;4.712;2022-07-24T11:30:22;2.22;;;1.98;;
8777;SDS011;4425;50.872;4.712;2022-07-24T11:32:54;5.15;;;2.13;;
8777;SDS011;4425;50.872;4.712;2022-07-24T11:35:28;1.80;;;1.70;;
8777;SDS011;4425;50.872;4.712;2022-07-24T11:37:58;2.42;;;2.10;;
8777;SDS011;4425;50.872;4.712;2022-07-24T11:40:28;2.40;;;1.73;;
8777;SDS011;4425;50.872;4.712;2022-07-24T11:43:01;2.17;;;2.08;;
8777;SDS011;4425;50.872;4.712;2022-07-24T11:45:30;2.10;;;2.00;;
8777;SDS011;4425;50.872;4.712;2022-07-24T11:47:58;2.00;;;1.90;;
8777;SDS011;4425;50.872;4.712;2022-07-24T11:50:25;2.00;;;1.90;;
8777;SDS011;4425;50.872;4.712;2022-07-24T11:52:53;2.35;;;2.00;;
8777;SDS011;4425;50.872;4.712;2022-07-24T11:55:23;1.80;;;1.80;;
8777;SDS011;4425;50.872;4.712;2022-07-24T11:57:53;2.50;;;2.40;;
8777;SDS011;4425;50.872;4.712;2022-07-24T12:00:23;2.38;;;2.28;;
8777;SDS011;4425;50.872;4.712;2022-07-24T12:02:55;2.13;;;2.03;;
8777;SDS011;4425;50.872;4.712;2022-07-24T12:05:27;2.20;;;2.05;;
8777;SDS011;4425;50.872;4.712;2022-07-24T12:08:00;2.65;;;2.00;;
8777;SDS011;4425;50.872;4.712;2022-07-24T12:10:31;2.30;;;2.20;;
8777;SDS011;4425;50.872;4.712;2022-07-24T12:12:59;3.08;;;2.70;;
8777;SDS011;4425;50.872;4.712;2022-07-24T12:15:27;2.67;;;2.30;;
8777;SDS011;4425;50.872;4.712;2022-07-24T12:17:57;2.33;;;2.20;;
8777;SDS011;4425;50.872;4.712;2022-07-24T12:20:27;2.22;;;2.20;;
8777;SDS011;4425;50.872;4.712;2022-07-24T12:22:58;2.00;;;1.90;;
8777;SDS011;4425;50.872;4.712;2022-07-24T12:25:27;2.70;;;2.60;;
8777;SDS011;4425;50.872;4.712;2022-07-24T12:28:04;2.55;;;2.40;;
8777;SDS011;4425;50.872;4.712;2022-07-24T12:34:15;2.70;;;2.60;;
8777;SDS011;4425;50.872;4.712;2022-07-24T12:36:42;2.92;;;2.83;;
8777;SDS011;4425;50.872;4.712;2022-07-24T12:39:10;6.78;;;2.97;;
8777;SDS011;4425;50.872;4.712;2022-07-24T12:41:43;3.35;;;3.15;;
8777;SDS011;4425;50.872;4.712;2022-07-24T12:44:12;3.33;;;2.88;;
8777;SDS011;4425;50.872;4.712;2022-07-24T12:46:40;3.20;;;3.00;;
8777;SDS011;4425;50.872;4.712;2022-07-24T12:49:09;3.30;;;2.75;;
8777;SDS011;4425;50.872;4.712;2022-07-24T12:51:46;3.83;;;2.85;;
8777;SDS011;4425;50.872;4.712;2022-07-24T12:54:14;4.60;;;3.13;;
8777;SDS011;4425;50.872;4.712;2022-07-24T12:56:43;3.72;;;3.10;;
8777;SDS011;4425;50.872;4.712;2022-07-24T12:59:20;3.92;;;3.63;;
8777;SDS011;4425;50.872;4.712;2022-07-24T13:01:49;3.47;;;3.25;;
8777;SDS011;4425;50.872;4.712;2022-07-24T13:04:19;3.40;;;3.10;;
8777;SDS011;4425;50.872;4.712;2022-07-24T13:06:49;3.85;;;3.03;;
8777;SDS011;4425;50.872;4.712;2022-07-24T13:09:18;3.55;;;2.85;;
8777;SDS011;4425;50.872;4.712;2022-07-24T13:11:47;3.70;;;3.25;;
8777;SDS011;4425;50.872;4.712;2022-07-24T13:14:16;3.55;;;3.20;;
8777;SDS011;4425;50.872;4.712;2022-07-24T13:16:45;3.67;;;3.40;;
8777;SDS011;4425;50.872;4.712;2022-07-24T13:19:13;3.47;;;3.20;;
8777;SDS011;4425;50.872;4.712;2022-07-24T13:21:41;4.30;;;3.60;;
8777;SDS011;4425;50.872;4.712;2022-07-24T13:24:11;3.60;;;3.40;;
8777;SDS011;4425;50.872;4.712;2022-07-24T13:26:39;3.53;;;3.22;;
8777;SDS011;4425;50.872;4.712;2022-07-24T13:29:07;3.50;;;3.25;;
8777;SDS011;4425;50.872;4.712;2022-07-24T13:31:36;3.53;;;3.20;;
8777;SDS011;4425;50.872;4.712;2022-07-24T13:34:04;3.45;;;3.15;;
8777;SDS011;4425;50.872;4.712;2022-07-24T13:36:31;3.20;;;3.00;;
8777;SDS011;4425;50.872;4.712;2022-07-24T13:38:58;4.05;;;3.75;;
8777;SDS011;4425;50.872;4.712;2022-07-24T13:41:27;3.20;;;3.10;;
8777;SDS011;4425;50.872;4.712;2022-07-24T13:43:54;3.38;;;3.05;;
8777;SDS011;4425;50.872;4.712;2022-07-24T13:46:21;3.28;;;3.13;;
8777;SDS011;4425;50.872;4.712;2022-07-24T13:48:49;4.95;;;3.33;;
8777;SDS011;4425;50.872;4.712;2022-07-24T13:51:16;4.70;;;3.20;;
8777;SDS011;4425;50.872;4.712;2022-07-24T13:53:44;3.63;;;3.33;;
8777;SDS011;4425;50.872;4.712;2022-07-24T13:56:11;3.50;;;3.30;;
8777;SDS011;4425;50.872;4.712;2022-07-24T13:58:44;4.55;;;2.90;;
8777;SDS011;4425;50.872;4.712;2022-07-24T14:01:11;2.80;;;2.70;;
8777;SDS011;4425;50.872;4.712;2022-07-24T14:03:39;2.88;;;2.78;;
8777;SDS011;4425;50.872;4.712;2022-07-24T14:06:07;3.08;;;2.88;;
8777;SDS011;4425;50.872;4.712;2022-07-24T14:08:35;2.88;;;2.78;;
8777;SDS011;4425;50.872;4.712;2022-07-24T14:11:02;5.97;;;2.95;;
8777;SDS011;4425;50.872;4.712;2022-07-24T14:13:29;3.25;;;3.05;;
8777;SDS011;4425;50.872;4.712;2022-07-24T14:15:59;3.00;;;2.90;;
8777;SDS011;4425;50.872;4.712;2022-07-24T14:18:26;3.10;;;2.90;;
8777;SDS011;4425;50.872;4.712;2022-07-24T14:20:54;3.65;;;3.45;;
8777;SDS011;4425;50.872;4.712;2022-07-24T14:23:22;3.40;;;3.28;;
8777;SDS011;4425;50.872;4.712;2022-07-24T14:25:49;3.65;;;3.35;;
8777;SDS011;4425;50.872;4.712;2022-07-24T14:28:16;3.45;;;3.15;;
8777;SDS011;4425;50.872;4.712;2022-07-24T14:30:44;4.20;;;4.00;;
8777;SDS011;4425;50.872;4.712;2022-07-24T14:33:15;3.95;;;3.63;;
8777;SDS011;4425;50.872;4.712;2022-07-24T14:35:44;3.50;;;3.30;;
8777;SDS011;4425;50.872;4.712;2022-07-24T14:38:11;7.95;;;3.58;;
8777;SDS011;4425;50.872;4.712;2022-07-24T14:40:38;4.40;;;3.72;;
8777;SDS011;4425;50.872;4.712;2022-07-24T14:43:06;4.05;;;3.72;;
8777;SDS011;4425;50.872;4.712;2022-07-24T14:45:33;3.95;;;3.65;;
8777;SDS011;4425;50.872;4.712;2022-07-24T14:48:01;3.70;;;3.50;;
8777;SDS011;4425;50.872;4.712;2022-07-24T14:50:30;4.97;;;3.85;;
8777;SDS011;4425;50.872;4.712;2022-07-24T14:52:57;4.00;;;3.70;;
8777;SDS011;4425;50.872;4.712;2022-07-24T14:55:24;3.63;;;3.33;;
8777;SDS011;4425;50.872;4.712;2022-07-24T14:57:51;3.33;;;3.22;;
8777;SDS011;4425;50.872;4.712;2022-07-24T15:00:20;3.90;;;3.67;;
8777;SDS011;4425;50.872;4.712;2022-07-24T15:02:47;4.07;;;3.80;;
8777;SDS011;4425;50.872;4.712;2022-07-24T15:05:14;3.60;;;3.30;;
8777;SDS011;4425;50.872;4.712;2022-07-24T15:07:45;3.42;;;3.22;;
8777;SDS011;4425;50.872;4.712;2022-07-24T15:10:12;3.65;;;3.35;;
8777;SDS011;4425;50.872;4.712;2022-07-24T15:16:20;3.75;;;3.45;;
8777;SDS011;4425;50.872;4.712;2022-07-24T15:18:48;3.58;;;3.30;;
8777;SDS011;4425;50.872;4.712;2022-07-24T15:21:15;3.95;;;3.60;;
8777;SDS011;4425;50.872;4.712;2022-07-24T15:23:43;4.25;;;3.95;;
8777;SDS011;4425;50.872;4.712;2022-07-24T15:26:10;4.15;;;3.80;;
8777;SDS011;4425;50.872;4.712;2022-07-24T15:28:37;4.22;;;3.75;;
8777;SDS011;4425;50.872;4.712;2022-07-24T15:31:04;3.90;;;3.70;;
8777;SDS011;4425;50.872;4.712;2022-07-24T15:37:16;3.72;;;3.50;;
8777;SDS011;4425;50.872;4.712;2022-07-24T15:39:45;4.43;;;4.05;;
8777;SDS011;4425;50.872;4.712;2022-07-24T15:42:12;3.95;;;3.65;;
8777;SDS011;4425;50.872;4.712;2022-07-24T15:44:40;3.90;;;3.70;;
8777;SDS011;4425;50.872;4.712;2022-07-24T15:47:07;4.18;;;3.90;;
8777;SDS011;4425;50.872;4.712;2022-07-24T15:49:34;4.85;;;4.65;;
8777;SDS011;4425;50.872;4.712;2022-07-24T15:52:03;4.22;;;4.03;;
8777;SDS011;4425;50.872;4.712;2022-07-24T15:54:30;4.28;;;3.88;;
8777;SDS011;4425;50.872;4.712;2022-07-24T15:56:59;4.28;;;3.85;;
8777;SDS011;4425;50.872;4.712;2022-07-24T15:59:26;4.43;;;4.13;;
8777;SDS011;4425;50.872;4.712;2022-07-24T16:01:53;4.05;;;3.75;;